Time;durP1;ratioP1;P1;durP2;ratioP2;P2;SDS_P1;SDS_P2;PMS_P1;PMS_P2;Temp;Humidity;BMP_temperature;BMP_pressure;BME280_temperature;BME280_humidity;BME280_pressure;Samples;Min_cycle;Max_cycle;Signal;HPM_P1;HPM_P2
2022/03/15 00:00:21;;;;;;;;;;;22.30;34.30;;;;;;5055127;28;19999;-59
2022/03/15 00:02:48;;;;;;;;;;;22.30;34.30;;;;;;5056158;28;19909;-60
2022/03/15 00:05:13;;;;;;;;;;;22.30;34.30;;;;;;5056596;28;19980;-60
2022/03/15 00:07:39;;;;;;;;;;;22.30;34.20;;;;;;5056063;28;20357;-60
2022/03/15 00:10:05;;;;;;;;;;;22.30;34.20;;;;;;5055461;28;19916;-60
2022/03/15 00:12:31;;;;;;;;;;;22.30;34.20;;;;;;5054746;28;19908;-61
2022/03/15 00:14:57;;;;;;;;;;;22.30;34.20;;;;;;5054697;28;19917;-61
2022/03/15 00:17:23;;;;;;;;;;;22.30;34.20;;;;;;5054860;28;20326;-62
2022/03/15 00:19:49;;;;;;;;;;;22.30;34.20;;;;;;5053569;28;19967;-59
2022/03/15 00:22:14;;;;;;;;;;;22.30;34.10;;;;;;5054266;28;19952;-60
2022/03/15 00:24:41;;;;;;;;;;;22.30;34.10;;;;;;5050828;28;19913;-60
2022/03/15 00:27:07;;;;;;;;;;;22.30;34.10;;;;;;5054850;28;19909;-59
2022/03/15 00:29:35;;;;;;;;;;;22.30;34.10;;;;;;5055043;28;19920;-59
2022/03/15 00:32:01;;;;;;;;;;;22.30;34.10;;;;;;5053043;28;19909;-60
2022/03/15 00:34:27;;;;;;;;;;;22.30;34.10;;;;;;5055666;28;20011;-60
2022/03/15 00:36:53;;;;;;;;;;;22.30;34.10;;;;;;5055226;28;20248;-59
2022/03/15 00:39:18;;;;;;;;;;;22.30;34.10;;;;;;5031439;28;20302;-61
2022/03/15 00:41:44;;;;;;;;;;;22.30;34.10;;;;;;5032757;28;20224;-62
2022/03/15 00:44:10;;;;;;;;;;;22.30;34.10;;;;;;5035707;28;19913;-60
2022/03/15 00:46:35;;;;;;;;;;;22.30;34.10;;;;;;5037350;28;19966;-60
2022/03/15 00:49:01;;;;;;;;;;;22.30;34.10;;;;;;5053860;28;19916;-61
2022/03/15 00:51:31;;;;;;;;;;;22.30;34.00;;;;;;5053580;28;19912;-62
2022/03/15 00:53:57;;;;;;;;;;;22.20;34.00;;;;;;5036452;28;20004;-61
2022/03/15 00:56:23;;;;;;;;;;;22.20;34.00;;;;;;5037786;28;20271;-61
2022/03/15 00:58:48;;;;;;;;;;;22.20;34.00;;;;;;5033180;28;19943;-61
2022/03/15 01:01:14;;;;;;;;;;;22.20;34.00;;;;;;5037241;28;19973;-60
2022/03/15 01:03:40;;;;;;;;;;;22.20;34.00;;;;;;5049422;28;20240;-60
2022/03/15 01:06:05;;;;;;;;;;;22.20;34.00;;;;;;5033402;28;20248;-61
2022/03/15 01:08:31;;;;;;;;;;;22.20;34.00;;;;;;5036049;28;19932;-59
2022/03/15 01:10:57;;;;;;;;;;;22.20;34.00;;;;;;5054975;28;19909;-59
2022/03/15 01:13:27;;;;;;;;;;;22.20;34.00;;;;;;5037108;28;19919;-60
2022/03/15 01:15:53;;;;;;;;;;;22.20;34.00;;;;;;5054633;28;19920;-59
2022/03/15 01:18:20;;;;;;;;;;;22.20;34.00;;;;;;5036002;28;19970;-61
2022/03/15 01:20:46;;;;;;;;;;;22.20;34.00;;;;;;5054944;28;19909;-60
2022/03/15 01:23:12;;;;;;;;;;;22.20;34.00;;;;;;5049448;28;20232;-61
2022/03/15 01:25:39;;;;;;;;;;;22.20;34.00;;;;;;5035113;28;19908;-60
2022/03/15 01:28:05;;;;;;;;;;;22.20;34.00;;;;;;5034586;28;19919;-59
2022/03/15 01:30:31;;;;;;;;;;;22.20;34.00;;;;;;5037008;28;19908;-60
2022/03/15 01:32:57;;;;;;;;;;;22.20;34.00;;;;;;5035086;28;19931;-59
2022/03/15 01:35:23;;;;;;;;;;;22.20;33.90;;;;;;5036575;28;19920;-60
2022/03/15 01:37:50;;;;;;;;;;;22.20;34.00;;;;;;5050334;28;20143;-59
2022/03/15 01:40:16;;;;;;;;;;;22.20;33.90;;;;;;5053780;28;20023;-61
2022/03/15 01:42:43;;;;;;;;;;;22.20;33.90;;;;;;5035661;28;19920;-60
2022/03/15 01:45:10;;;;;;;;;;;22.20;33.90;;;;;;5051127;28;19909;-60
2022/03/15 01:47:37;;;;;;;;;;;22.10;33.90;;;;;;5035844;28;20224;-60
2022/03/15 01:50:03;;;;;;;;;;;22.10;33.80;;;;;;5054334;28;19913;-61
2022/03/15 01:52:29;;;;;;;;;;;22.20;33.90;;;;;;5053415;28;19920;-60
2022/03/15 01:54:55;;;;;;;;;;;22.20;33.80;;;;;;5036241;28;20008;-60
2022/03/15 01:57:20;;;;;;;;;;;22.10;33.80;;;;;;5052767;28;20003;-60
2022/03/15 01:59:46;;;;;;;;;;;22.10;33.80;;;;;;5035115;28;20277;-61
2022/03/15 02:02:12;;;;;;;;;;;22.10;33.80;;;;;;5034775;28;19909;-60
2022/03/15 02:04:38;;;;;;;;;;;22.10;33.80;;;;;;5050696;28;19913;-60
2022/03/15 02:07:09;;;;;;;;;;;22.10;33.80;;;;;;5050422;28;20282;-59
2022/03/15 02:09:35;;;;;;;;;;;22.10;33.80;;;;;;5032698;28;19917;-60
2022/03/15 02:12:01;;;;;;;;;;;22.10;33.80;;;;;;5030310;28;20325;-59
2022/03/15 02:14:27;;;;;;;;;;;22.10;33.80;;;;;;5033903;28;20204;-61
2022/03/15 02:16:53;;;;;;;;;;;22.10;33.80;;;;;;5031077;28;20303;-60
2022/03/15 02:19:19;;;;;;;;;;;22.10;33.80;;;;;;5034055;28;19945;-60
2022/03/15 02:21:44;;;;;;;;;;;22.10;33.80;;;;;;5032519;28;19956;-61
2022/03/15 02:24:10;;;;;;;;;;;22.10;33.80;;;;;;5032241;28;20010;-61
2022/03/15 02:26:36;;;;;;;;;;;22.10;33.80;;;;;;5031241;28;19909;-60
2022/03/15 02:29:01;;;;;;;;;;;22.10;33.80;;;;;;5033980;28;19909;-61
2022/03/15 02:31:27;;;;;;;;;;;22.10;33.80;;;;;;5033435;28;19945;-60
2022/03/15 02:33:53;;;;;;;;;;;22.10;33.80;;;;;;5034064;28;20209;-60
2022/03/15 02:36:19;;;;;;;;;;;22.10;33.80;;;;;;5031662;28;20264;-60
2022/03/15 02:38:45;;;;;;;;;;;22.10;33.80;;;;;;5033819;28;19913;-60
2022/03/15 02:41:11;;;;;;;;;;;22.10;33.80;;;;;;5031861;28;19987;-59
2022/03/15 02:43:37;;;;;;;;;;;22.10;33.80;;;;;;5032517;28;19913;-61
2022/03/15 02:46:02;;;;;;;;;;;22.10;33.80;;;;;;5029914;28;20232;-61
2022/03/15 02:48:28;;;;;;;;;;;22.10;33.80;;;;;;5032997;28;19916;-61
2022/03/15 02:50:55;;;;;;;;;;;22.10;33.80;;;;;;5032858;28;19910;-60
2022/03/15 02:53:20;;;;;;;;;;;22.10;33.80;;;;;;5033440;28;19913;-60
2022/03/15 02:55:46;;;;;;;;;;;22.10;33.80;;;;;;5032497;28;19917;-60
2022/03/15 02:58:12;;;;;;;;;;;22.10;33.80;;;;;;5033480;28;19986;-61
2022/03/15 03:00:38;;;;;;;;;;;22.00;33.80;;;;;;5031071;28;20004;-60
2022/03/15 03:03:04;;;;;;;;;;;22.00;33.80;;;;;;5032284;28;20567;-59
2022/03/15 03:05:30;;;;;;;;;;;22.00;33.80;;;;;;5030713;28;19936;-61
2022/03/15 03:07:55;;;;;;;;;;;22.00;33.80;;;;;;5031957;28;20336;-59
2022/03/15 03:10:21;;;;;;;;;;;22.00;33.80;;;;;;5030754;28;19940;-60
2022/03/15 03:12:49;;;;;;;;;;;22.00;33.80;;;;;;5031285;28;19927;-60
2022/03/15 03:15:20;;;;;;;;;;;22.00;33.80;;;;;;5033517;28;19917;-60
2022/03/15 03:17:46;;;;;;;;;;;22.00;33.80;;;;;;5031311;28;19970;-61
2022/03/15 03:20:13;;;;;;;;;;;22.00;33.80;;;;;;5032151;28;20313;-61
2022/03/15 03:22:39;;;;;;;;;;;22.00;33.80;;;;;;5034092;28;20217;-60
2022/03/15 03:25:05;;;;;;;;;;;22.00;33.80;;;;;;5036600;28;19909;-60
2022/03/15 03:27:31;;;;;;;;;;;22.00;33.80;;;;;;5037084;28;19912;-60
2022/03/15 03:30:00;;;;;;;;;;;22.00;33.80;;;;;;5036924;28;20031;-60
2022/03/15 03:32:27;;;;;;;;;;;22.00;33.80;;;;;;5035774;28;19909;-60
2022/03/15 03:34:53;;;;;;;;;;;22.00;33.80;;;;;;5037176;28;19919;-59
2022/03/15 03:37:19;;;;;;;;;;;22.00;33.80;;;;;;5035738;28;19909;-61
2022/03/15 03:39:44;;;;;;;;;;;22.00;33.80;;;;;;5036813;28;19952;-60
2022/03/15 03:42:10;;;;;;;;;;;22.00;33.80;;;;;;5031945;28;19971;-60
2022/03/15 03:44:36;;;;;;;;;;;22.00;33.80;;;;;;5034459;28;19909;-60
2022/03/15 03:47:03;;;;;;;;;;;22.00;33.80;;;;;;5037018;28;19920;-60
2022/03/15 03:49:32;;;;;;;;;;;22.00;33.80;;;;;;5034857;28;19913;-60
2022/03/15 03:51:58;;;;;;;;;;;22.00;33.80;;;;;;5035296;28;19909;-60
2022/03/15 03:54:24;;;;;;;;;;;22.00;34.40;;;;;;5035765;28;19909;-59
2022/03/15 03:56:50;;;;;;;;;;;22.00;33.80;;;;;;5036793;28;20024;-62
2022/03/15 03:59:16;;;;;;;;;;;22.00;33.80;;;;;;5035678;28;19909;-61
2022/03/15 04:01:42;;;;;;;;;;;22.00;33.80;;;;;;5036440;28;20332;-60
2022/03/15 04:04:08;;;;;;;;;;;22.00;33.80;;;;;;5034813;28;19909;-61
2022/03/15 04:06:34;;;;;;;;;;;22.00;33.80;;;;;;5036347;28;20327;-61
2022/03/15 04:09:00;;;;;;;;;;;22.00;33.80;;;;;;5042903;28;20016;-59
2022/03/15 04:11:26;;;;;;;;;;;22.00;33.80;;;;;;5056351;28;20012;-60
2022/03/15 04:13:52;;;;;;;;;;;22.00;33.80;;;;;;5055068;28;20307;-60
2022/03/15 04:16:20;;;;;;;;;;;22.00;33.70;;;;;;5056146;28;19962;-60
2022/03/15 04:18:46;;;;;;;;;;;22.00;33.80;;;;;;5055032;28;19921;-60
2022/03/15 04:21:12;;;;;;;;;;;21.90;33.70;;;;;;5053997;28;19967;-61
2022/03/15 04:23:38;;;;;;;;;;;21.90;33.70;;;;;;5054394;28;20244;-60
2022/03/15 04:26:04;;;;;;;;;;;22.00;33.70;;;;;;5055967;28;19962;-60
2022/03/15 04:28:30;;;;;;;;;;;21.90;33.60;;;;;;5053584;28;20450;-60
2022/03/15 04:30:55;;;;;;;;;;;21.90;33.60;;;;;;5049572;28;19956;-61
2022/03/15 04:33:21;;;;;;;;;;;21.90;33.60;;;;;;5054358;28;19908;-59
2022/03/15 04:35:47;;;;;;;;;;;21.90;33.60;;;;;;5055540;28;19920;-59
2022/03/15 04:38:12;;;;;;;;;;;21.90;33.60;;;;;;5054144;28;20272;-60
2022/03/15 04:40:40;;;;;;;;;;;21.90;33.60;;;;;;5056139;28;19921;-62
2022/03/15 04:43:06;;;;;;;;;;;21.90;33.60;;;;;;5055065;28;20234;-61
2022/03/15 04:45:32;;;;;;;;;;;21.90;33.60;;;;;;5055852;28;19999;-61
2022/03/15 04:47:58;;;;;;;;;;;21.90;33.60;;;;;;5054653;28;19999;-60
2022/03/15 04:50:24;;;;;;;;;;;21.90;33.60;;;;;;5053653;28;20363;-59
2022/03/15 04:52:50;;;;;;;;;;;21.90;33.60;;;;;;5053332;28;19908;-60
2022/03/15 04:55:15;;;;;;;;;;;21.90;33.60;;;;;;5055924;28;19916;-61
2022/03/15 04:57:42;;;;;;;;;;;21.90;33.60;;;;;;5054689;28;19919;-60
2022/03/15 05:00:09;;;;;;;;;;;21.90;33.60;;;;;;5055002;28;20317;-60
2022/03/15 05:02:35;;;;;;;;;;;21.90;33.60;;;;;;5055075;28;20340;-60
2022/03/15 05:05:04;;;;;;;;;;;21.90;33.60;;;;;;5055794;28;19913;-61
2022/03/15 05:07:30;;;;;;;;;;;21.90;33.50;;;;;;5055143;28;19995;-61
2022/03/15 05:12:40;;;;;;;;;;;21.90;33.50;;;;;;5053989;28;20022;-61
2022/03/15 05:15:06;;;;;;;;;;;21.90;33.50;;;;;;5052822;28;19909;-61
2022/03/15 05:17:33;;;;;;;;;;;21.90;33.50;;;;;;5051071;28;20009;-61
2022/03/15 05:19:59;;;;;;;;;;;21.80;33.40;;;;;;5055024;28;20008;-61
2022/03/15 05:22:24;;;;;;;;;;;21.80;33.40;;;;;;5053501;28;20008;-61
2022/03/15 05:24:50;;;;;;;;;;;21.80;33.40;;;;;;5052126;28;19924;-60
2022/03/15 05:27:16;;;;;;;;;;;21.80;33.40;;;;;;5054608;28;19909;-60
2022/03/15 05:29:42;;;;;;;;;;;21.80;33.40;;;;;;5052169;28;20007;-60
2022/03/15 05:32:08;;;;;;;;;;;21.80;33.40;;;;;;5054250;28;20004;-60
2022/03/15 05:34:33;;;;;;;;;;;21.80;33.40;;;;;;5035487;28;20293;-60
2022/03/15 05:36:59;;;;;;;;;;;21.80;33.40;;;;;;5037051;28;19930;-60
2022/03/15 05:39:24;;;;;;;;;;;21.80;33.40;;;;;;5053927;28;19908;-61
2022/03/15 05:41:50;;;;;;;;;;;21.80;33.40;;;;;;5051997;28;19991;-61
2022/03/15 05:44:16;;;;;;;;;;;21.80;33.40;;;;;;5053873;28;19991;-61
2022/03/15 05:46:41;;;;;;;;;;;21.80;33.40;;;;;;5053054;28;19920;-62
2022/03/15 05:49:07;;;;;;;;;;;21.80;33.40;;;;;;5052529;28;19919;-61
2022/03/15 05:51:33;;;;;;;;;;;21.80;33.40;;;;;;5053428;28;20239;-61
2022/03/15 05:53:59;;;;;;;;;;;21.80;33.40;;;;;;5054584;28;20719;-60
2022/03/15 05:56:25;;;;;;;;;;;21.80;33.40;;;;;;5052887;28;19940;-61
2022/03/15 05:58:51;;;;;;;;;;;21.80;33.40;;;;;;5035674;28;19909;-62
2022/03/15 06:01:16;;;;;;;;;;;21.80;33.40;;;;;;5052886;28;19999;-61
2022/03/15 06:03:42;;;;;;;;;;;21.80;33.40;;;;;;5053344;28;20231;-61
2022/03/15 06:06:08;;;;;;;;;;;21.80;33.40;;;;;;5053755;28;19909;-60
2022/03/15 06:08:34;;;;;;;;;;;21.80;33.40;;;;;;5052955;28;20077;-61
2022/03/15 06:11:02;;;;;;;;;;;21.80;33.40;;;;;;5053977;28;20379;-60
2022/03/15 06:13:29;;;;;;;;;;;21.80;33.40;;;;;;5052051;28;19908;-60
2022/03/15 06:15:55;;;;;;;;;;;21.80;33.40;;;;;;5050585;28;19927;-61
2022/03/15 06:18:20;;;;;;;;;;;21.80;33.30;;;;;;5051654;28;19912;-60
2022/03/15 06:20:46;;;;;;;;;;;21.80;33.30;;;;;;5053476;28;19924;-60
2022/03/15 06:23:12;;;;;;;;;;;21.80;33.30;;;;;;5051439;28;20387;-61
2022/03/15 06:25:38;;;;;;;;;;;21.80;33.30;;;;;;5053680;28;19951;-61
2022/03/15 06:28:04;;;;;;;;;;;21.80;33.30;;;;;;5052642;28;19960;-60
2022/03/15 06:30:30;;;;;;;;;;;21.70;33.30;;;;;;5053833;28;19912;-61
2022/03/15 06:32:56;;;;;;;;;;;21.80;33.30;;;;;;5050769;28;20010;-60
2022/03/15 06:35:21;;;;;;;;;;;21.80;33.30;;;;;;5054046;28;20344;-60
2022/03/15 06:37:48;;;;;;;;;;;21.70;33.20;;;;;;5052270;28;20011;-59
2022/03/15 06:40:15;;;;;;;;;;;21.80;33.30;;;;;;5050729;28;20009;-61
2022/03/15 06:42:42;;;;;;;;;;;21.80;33.30;;;;;;5051553;28;19948;-61
2022/03/15 06:45:08;;;;;;;;;;;21.80;33.30;;;;;;5054108;28;19923;-61
2022/03/15 06:47:34;;;;;;;;;;;21.80;33.30;;;;;;5052368;28;19912;-60
2022/03/15 06:50:01;;;;;;;;;;;21.80;33.30;;;;;;5053377;28;20347;-60
2022/03/15 06:52:26;;;;;;;;;;;21.80;33.30;;;;;;5048286;28;19912;-61
2022/03/15 06:54:52;;;;;;;;;;;21.80;33.30;;;;;;5053362;28;19970;-61
2022/03/15 06:57:21;;;;;;;;;;;21.70;33.20;;;;;;5053493;28;19924;-61
2022/03/15 06:59:47;;;;;;;;;;;21.70;33.20;;;;;;5055909;28;20267;-62
2022/03/15 07:02:13;;;;;;;;;;;21.70;33.20;;;;;;5056779;28;19920;-62
2022/03/15 07:04:39;;;;;;;;;;;21.80;33.30;;;;;;5057869;28;20295;-61
2022/03/15 07:07:05;;;;;;;;;;;21.70;33.20;;;;;;5057015;28;19920;-60
2022/03/15 07:09:30;;;;;;;;;;;21.80;33.30;;;;;;5039815;28;19917;-60
2022/03/15 07:12:00;;;;;;;;;;;21.80;33.30;;;;;;5055054;28;19908;-61
2022/03/15 07:14:25;;;;;;;;;;;21.70;33.30;;;;;;5057974;28;19920;-61
2022/03/15 07:16:57;;;;;;;;;;;21.80;33.30;;;;;;5056617;28;19916;-61
2022/03/15 07:19:23;;;;;;;;;;;21.70;33.30;;;;;;5049778;28;19955;-59
2022/03/15 07:21:48;;;;;;;;;;;21.70;33.30;;;;;;5056656;28;19955;-60
2022/03/15 07:24:14;;;;;;;;;;;21.70;33.30;;;;;;5057194;28;19908;-60
2022/03/15 07:26:40;;;;;;;;;;;21.70;33.30;;;;;;5055916;28;19932;-58
2022/03/15 07:29:06;;;;;;;;;;;21.70;33.20;;;;;;5056180;28;20023;-60
2022/03/15 07:31:31;;;;;;;;;;;21.70;33.20;;;;;;5054879;28;19912;-59
2022/03/15 07:33:57;;;;;;;;;;;21.70;33.20;;;;;;5052950;28;19912;-59
2022/03/15 07:36:23;;;;;;;;;;;21.70;33.30;;;;;;5053992;28;20342;-58
2022/03/15 07:38:49;;;;;;;;;;;21.70;33.30;;;;;;5055771;28;19932;-60
2022/03/15 07:41:16;;;;;;;;;;;21.70;33.30;;;;;;5055644;28;20046;-60
2022/03/15 07:43:42;;;;;;;;;;;21.70;33.30;;;;;;5055278;28;19909;-59
2022/03/15 07:46:08;;;;;;;;;;;21.70;33.20;;;;;;5055022;28;20008;-58
2022/03/15 07:48:34;;;;;;;;;;;21.80;33.20;;;;;;5052373;28;19999;-60
2022/03/15 07:51:00;;;;;;;;;;;21.80;33.20;;;;;;5053538;28;20362;-59
2022/03/15 07:53:28;;;;;;;;;;;21.90;33.10;;;;;;5055330;28;20386;-59
2022/03/15 07:55:54;;;;;;;;;;;22.00;33.10;;;;;;5054042;28;19950;-59
2022/03/15 07:58:19;;;;;;;;;;;22.00;32.90;;;;;;5052478;28;19974;-59
2022/03/15 08:00:46;;;;;;;;;;;22.10;32.90;;;;;;5056520;28;20283;-59
2022/03/15 08:03:12;;;;;;;;;;;22.20;32.80;;;;;;5056323;28;19909;-59
2022/03/15 08:05:38;;;;;;;;;;;22.20;32.80;;;;;;5056055;28;19932;-59
2022/03/15 08:08:07;;;;;;;;;;;22.30;32.80;;;;;;5051154;28;19909;-59
2022/03/15 08:10:33;;;;;;;;;;;22.30;32.80;;;;;;5046269;28;19946;-58
2022/03/15 08:12:58;;;;;;;;;;;22.40;32.80;;;;;;5039492;28;20333;-60
2022/03/15 08:15:24;;;;;;;;;;;22.40;32.70;;;;;;5052826;28;19936;-59
2022/03/15 08:17:50;;;;;;;;;;;22.50;32.70;;;;;;5056021;28;20054;-59
2022/03/15 08:20:19;;;;;;;;;;;22.50;32.60;;;;;;5053394;28;20011;-60
2022/03/15 08:22:45;;;;;;;;;;;22.60;32.60;;;;;;5055776;28;19936;-58
2022/03/15 08:25:11;;;;;;;;;;;22.60;32.50;;;;;;5053595;28;20324;-58
2022/03/15 08:27:38;;;;;;;;;;;22.60;32.50;;;;;;5042871;28;19920;-56
2022/03/15 08:30:04;;;;;;;;;;;22.60;32.50;;;;;;5055061;28;19909;-56
2022/03/15 08:32:29;;;;;;;;;;;22.70;32.50;;;;;;5055311;28;20003;-58
2022/03/15 08:34:55;;;;;;;;;;;22.70;32.50;;;;;;5055478;28;20320;-56
2022/03/15 08:37:21;;;;;;;;;;;22.80;32.50;;;;;;5051470;28;19931;-54
2022/03/15 08:39:47;;;;;;;;;;;22.80;32.50;;;;;;5056082;28;19909;-53
2022/03/15 08:42:13;;;;;;;;;;;22.80;33.00;;;;;;5053402;28;19917;-56
2022/03/15 08:44:39;;;;;;;;;;;22.80;32.40;;;;;;5054745;28;19913;-56
2022/03/15 08:47:05;;;;;;;;;;;22.90;32.40;;;;;;5052812;28;19909;-58
2022/03/15 08:49:30;;;;;;;;;;;22.90;32.40;;;;;;5050372;28;19923;-59
2022/03/15 08:51:56;;;;;;;;;;;22.90;32.40;;;;;;5051281;28;19909;-58
2022/03/15 08:54:22;;;;;;;;;;;22.90;32.40;;;;;;5052279;28;19920;-58
2022/03/15 08:56:48;;;;;;;;;;;22.90;32.40;;;;;;5051411;28;19929;-58
2022/03/15 08:59:15;;;;;;;;;;;22.90;32.40;;;;;;5055321;28;20007;-57
2022/03/15 09:01:41;;;;;;;;;;;23.00;32.50;;;;;;5055896;28;19956;-54
2022/03/15 09:04:07;;;;;;;;;;;23.00;32.50;;;;;;5055230;28;19919;-58
2022/03/15 09:06:33;;;;;;;;;;;22.90;32.40;;;;;;5055270;28;19909;-59
2022/03/15 09:09:01;;;;;;;;;;;23.00;32.50;;;;;;5056948;28;19916;-57
2022/03/15 09:11:28;;;;;;;;;;;22.90;32.50;;;;;;5057079;28;20340;-59
2022/03/15 09:13:54;;;;;;;;;;;22.90;32.50;;;;;;5056678;28;19916;-59
2022/03/15 09:16:20;;;;;;;;;;;22.90;32.50;;;;;;5054743;28;20291;-61
2022/03/15 09:18:46;;;;;;;;;;;22.90;32.50;;;;;;5024019;28;19924;-60
2022/03/15 09:21:12;;;;;;;;;;;22.90;32.50;;;;;;5048939;28;19909;-60
2022/03/15 09:23:38;;;;;;;;;;;22.90;32.50;;;;;;5051716;28;19909;-60
2022/03/15 09:26:08;;;;;;;;;;;22.90;32.50;;;;;;5048280;28;19955;-61
2022/03/15 09:28:35;;;;;;;;;;;22.90;32.50;;;;;;5029773;28;20325;-61
2022/03/15 09:31:02;;;;;;;;;;;22.80;32.40;;;;;;5049514;28;19996;-62
2022/03/15 09:33:28;;;;;;;;;;;22.80;32.40;;;;;;5055283;28;19909;-60
2022/03/15 09:35:54;;;;;;;;;;;22.80;32.40;;;;;;5038168;28;19921;-61
2022/03/15 09:38:21;;;;;;;;;;;22.80;32.40;;;;;;5055806;28;19917;-62
2022/03/15 09:40:52;;;;;;;;;;;22.80;32.40;;;;;;5050311;28;19919;-62
2022/03/15 09:43:21;;;;;;;;;;;22.80;32.40;;;;;;5055686;28;19915;-62
2022/03/15 09:45:48;;;;;;;;;;;22.80;32.40;;;;;;5055684;28;20243;-61
2022/03/15 09:48:17;;;;;;;;;;;22.80;32.40;;;;;;5055246;28;20413;-61
2022/03/15 09:50:46;;;;;;;;;;;22.70;32.30;;;;;;5049817;28;20010;-60
2022/03/15 09:53:12;;;;;;;;;;;22.70;33.00;;;;;;5042281;28;19970;-59
2022/03/15 09:55:38;;;;;;;;;;;22.70;32.40;;;;;;5053624;28;20328;-58
2022/03/15 09:58:04;;;;;;;;;;;22.70;32.40;;;;;;5039348;28;20218;-59
2022/03/15 10:00:30;;;;;;;;;;;22.70;32.40;;;;;;5048661;28;19936;-60
2022/03/15 10:02:55;;;;;;;;;;;22.70;32.40;;;;;;5052354;28;19956;-60
2022/03/15 10:05:21;;;;;;;;;;;22.60;32.30;;;;;;5054234;28;19982;-60
2022/03/15 10:07:47;;;;;;;;;;;22.60;33.00;;;;;;5042165;28;19939;-58
2022/03/15 10:10:14;;;;;;;;;;;22.60;32.30;;;;;;5045197;28;19916;-60
2022/03/15 10:12:39;;;;;;;;;;;22.60;32.30;;;;;;5052579;28;20221;-60
2022/03/15 10:15:25;;;;;;;;;;;22.60;32.30;;;;;;5045231;28;19920;-60
2022/03/15 10:17:52;;;;;;;;;;;22.60;32.30;;;;;;5035691;28;20299;-57
2022/03/15 10:20:19;;;;;;;;;;;22.60;32.30;;;;;;5039778;28;19909;-60
2022/03/15 10:22:52;;;;;;;;;;;22.60;32.30;;;;;;5038455;28;19917;-60
2022/03/15 10:25:20;;;;;;;;;;;22.60;32.30;;;;;;5032391;28;19912;-59
2022/03/15 10:27:49;;;;;;;;;;;22.60;32.30;;;;;;5051395;28;19964;-56
2022/03/15 10:30:16;;;;;;;;;;;22.50;32.30;;;;;;5054847;28;19919;-61
2022/03/15 10:32:42;;;;;;;;;;;22.50;32.40;;;;;;5054029;28;19908;-59
2022/03/15 10:35:08;;;;;;;;;;;22.40;32.50;;;;;;5045990;28;19919;-59
2022/03/15 10:37:35;;;;;;;;;;;22.40;32.60;;;;;;5047275;28;19952;-56
2022/03/15 10:40:04;;;;;;;;;;;22.40;32.70;;;;;;5055714;28;20350;-58
2022/03/15 10:42:30;;;;;;;;;;;22.40;32.70;;;;;;5050417;28;19917;-56
2022/03/15 10:44:57;;;;;;;;;;;22.40;32.80;;;;;;5053252;28;19919;-60
2022/03/15 10:47:23;;;;;;;;;;;22.30;32.80;;;;;;5051061;28;19948;-59
2022/03/15 10:49:51;;;;;;;;;;;22.30;32.80;;;;;;5037875;28;20278;-59
2022/03/15 10:52:35;;;;;;;;;;;22.30;32.80;;;;;;5034034;28;19913;-58
2022/03/15 10:55:08;;;;;;;;;;;22.30;32.90;;;;;;5036448;28;19909;-57
2022/03/15 10:57:50;;;;;;;;;;;22.20;32.90;;;;;;5040853;28;20029;-58
2022/03/15 11:00:17;;;;;;;;;;;22.30;33.00;;;;;;5055296;28;19908;-57
2022/03/15 11:02:44;;;;;;;;;;;22.30;33.10;;;;;;5050146;28;19920;-58
2022/03/15 11:05:10;;;;;;;;;;;22.30;33.10;;;;;;5041923;28;19909;-57
2022/03/15 11:07:37;;;;;;;;;;;22.20;33.10;;;;;;5048978;28;19996;-59
2022/03/15 11:10:13;;;;;;;;;;;22.20;33.10;;;;;;5035192;28;19928;-56
2022/03/15 11:12:54;;;;;;;;;;;22.20;33.10;;;;;;5047097;28;19923;-58
2022/03/15 11:15:22;;;;;;;;;;;22.20;33.20;;;;;;5032783;28;19983;-57
2022/03/15 11:17:49;;;;;;;;;;;22.20;33.30;;;;;;5053647;28;19936;-58
2022/03/15 11:20:15;;;;;;;;;;;22.10;33.20;;;;;;5053859;28;19919;-59
2022/03/15 11:22:41;;;;;;;;;;;22.20;33.30;;;;;;5036722;28;19908;-58
2022/03/15 11:25:08;;;;;;;;;;;22.20;33.30;;;;;;5046145;28;19939;-58
2022/03/15 11:27:41;;;;;;;;;;;22.20;33.40;;;;;;5053045;28;19983;-56
2022/03/15 11:30:08;;;;;;;;;;;22.20;33.40;;;;;;5040531;28;19925;-64
2022/03/15 11:32:36;;;;;;;;;;;22.10;33.30;;;;;;5044964;28;19958;-61
2022/03/15 11:35:02;;;;;;;;;;;22.10;33.40;;;;;;5043167;28;19920;-61
2022/03/15 11:37:29;;;;;;;;;;;22.10;33.50;;;;;;5043620;28;19917;-61
2022/03/15 11:39:58;;;;;;;;;;;22.10;33.50;;;;;;5042744;28;20457;-60
2022/03/15 11:42:25;;;;;;;;;;;22.10;33.60;;;;;;5043585;28;19920;-60
2022/03/15 11:45:13;;;;;;;;;;;22.10;33.60;;;;;;5028888;28;19971;-65
2022/03/15 11:47:52;;;;;;;;;;;22.20;33.70;;;;;;5047559;28;19912;-62
2022/03/15 11:50:24;;;;;;;;;;;22.20;33.60;;;;;;5046747;28;19956;-59
2022/03/15 11:52:56;;;;;;;;;;;22.30;33.60;;;;;;5049437;28;20093;-65
2022/03/15 11:55:30;;;;;;;;;;;22.30;33.70;;;;;;5044776;28;19935;-60
2022/03/15 11:58:00;;;;;;;;;;;22.40;33.70;;;;;;5051271;28;19909;-64
2022/03/15 12:00:31;;;;;;;;;;;22.50;33.70;;;;;;5049752;28;19939;-59
2022/03/15 12:02:59;;;;;;;;;;;22.50;33.70;;;;;;5048160;28;20386;-59
2022/03/15 12:05:25;;;;;;;;;;;22.50;33.60;;;;;;5045115;28;19987;-63
2022/03/15 12:08:13;;;;;;;;;;;22.60;33.70;;;;;;5045552;28;19913;-62
2022/03/15 12:10:46;;;;;;;;;;;22.60;33.70;;;;;;5045688;28;19940;-62
2022/03/15 12:13:13;;;;;;;;;;;22.60;33.70;;;;;;5028821;28;20251;-62
2022/03/15 12:15:39;;;;;;;;;;;22.70;33.70;;;;;;5046662;28;19916;-63
2022/03/15 12:18:27;;;;;;;;;;;22.70;33.70;;;;;;5044175;28;19919;-63
2022/03/15 12:21:04;;;;;;;;;;;22.70;33.70;;;;;;5029115;28;20023;-62
2022/03/15 12:23:48;;;;;;;;;;;22.80;33.70;;;;;;5045338;28;20317;-64
2022/03/15 12:26:19;;;;;;;;;;;22.80;33.70;;;;;;5050194;28;19972;-60
2022/03/15 12:28:55;;;;;;;;;;;22.90;33.80;;;;;;5043989;28;20262;-62
2022/03/15 12:31:41;;;;;;;;;;;22.80;33.60;;;;;;5047050;28;19920;-60
2022/03/15 12:34:10;;;;;;;;;;;22.90;33.60;;;;;;5045120;28;19909;-62
2022/03/15 12:36:37;;;;;;;;;;;22.90;33.60;;;;;;5046677;28;19960;-63
2022/03/15 12:39:10;;;;;;;;;;;22.90;33.40;;;;;;5048101;28;19909;-59
2022/03/15 12:41:36;;;;;;;;;;;22.90;33.40;;;;;;5029126;28;19919;-61
2022/03/15 12:44:02;;;;;;;;;;;22.90;33.30;;;;;;5044619;28;19909;-62
2022/03/15 12:46:30;;;;;;;;;;;22.90;33.20;;;;;;5046673;28;19909;-61
2022/03/15 12:49:04;;;;;;;;;;;22.90;33.10;;;;;;5043751;28;22122;-62
2022/03/15 12:51:41;;;;;;;;;;;22.90;33.10;;;;;;5043786;28;19999;-58
2022/03/15 12:54:10;;;;;;;;;;;22.90;33.10;;;;;;5050888;28;19913;-60
2022/03/15 12:56:47;;;;;;;;;;;22.90;33.10;;;;;;5047034;28;19928;-61
2022/03/15 12:59:16;;;;;;;;;;;22.90;33.10;;;;;;5046075;28;20327;-61
2022/03/15 13:01:47;;;;;;;;;;;22.90;33.00;;;;;;5045875;28;20278;-58
2022/03/15 13:04:13;;;;;;;;;;;22.90;33.00;;;;;;5046996;28;19927;-59
2022/03/15 13:06:40;;;;;;;;;;;22.90;33.00;;;;;;5028019;28;20264;-63
2022/03/15 13:09:06;;;;;;;;;;;22.90;32.90;;;;;;5046209;28;19982;-62
2022/03/15 13:11:43;;;;;;;;;;;22.90;32.90;;;;;;5044212;28;19960;-59
2022/03/15 13:14:09;;;;;;;;;;;22.90;32.90;;;;;;5045790;28;19909;-61
2022/03/15 13:16:35;;;;;;;;;;;23.00;32.90;;;;;;5045863;28;19916;-60
2022/03/15 13:19:03;;;;;;;;;;;23.00;32.90;;;;;;5044877;28;20800;-61
2022/03/15 13:21:29;;;;;;;;;;;23.00;32.80;;;;;;5046666;28;19909;-58
2022/03/15 13:23:57;;;;;;;;;;;23.00;32.80;;;;;;5045281;28;19913;-59
2022/03/15 13:26:24;;;;;;;;;;;23.00;32.70;;;;;;5043117;28;19979;-65
2022/03/15 13:28:51;;;;;;;;;;;23.00;32.70;;;;;;5046639;28;20355;-57
2022/03/15 13:31:19;;;;;;;;;;;23.00;32.70;;;;;;5025418;28;19916;-58
2022/03/15 13:33:51;;;;;;;;;;;23.10;32.70;;;;;;5049651;28;19909;-54
2022/03/15 13:36:19;;;;;;;;;;;23.10;32.70;;;;;;5036894;28;19983;-58
2022/03/15 13:39:11;;;;;;;;;;;23.10;32.70;;;;;;5035751;28;19999;-59
2022/03/15 13:41:42;;;;;;;;;;;23.10;32.70;;;;;;5048578;28;20014;-58
2022/03/15 13:44:15;;;;;;;;;;;23.10;32.60;;;;;;5055624;28;19920;-54
2022/03/15 13:46:42;;;;;;;;;;;23.20;33.30;;;;;;5044399;28;20235;-63
2022/03/15 13:49:24;;;;;;;;;;;23.20;32.70;;;;;;5044617;28;19974;-62
2022/03/15 13:52:00;;;;;;;;;;;23.20;32.80;;;;;;5044577;28;19909;-61
2022/03/15 13:54:26;;;;;;;;;;;23.30;32.90;;;;;;5046383;28;19967;-63
2022/03/15 13:56:53;;;;;;;;;;;23.40;32.90;;;;;;5043501;28;20291;-63
2022/03/15 13:59:21;;;;;;;;;;;23.40;32.90;;;;;;5043527;28;20328;-58
2022/03/15 14:01:56;;;;;;;;;;;23.40;32.90;;;;;;5043548;28;19967;-58
2022/03/15 14:04:26;;;;;;;;;;;23.50;32.90;;;;;;5043201;28;19951;-61
2022/03/15 14:06:57;;;;;;;;;;;23.50;33.00;;;;;;5049713;28;19970;-60
2022/03/15 14:09:23;;;;;;;;;;;23.50;32.90;;;;;;5050634;28;20019;-59
2022/03/15 14:11:49;;;;;;;;;;;23.50;32.90;;;;;;5047393;28;20366;-61
2022/03/15 14:14:22;;;;;;;;;;;23.50;33.00;;;;;;5042856;28;19909;-61
2022/03/15 14:16:51;;;;;;;;;;;23.50;33.00;;;;;;5046312;28;19986;-62
2022/03/15 14:19:20;;;;;;;;;;;23.50;33.00;;;;;;5045580;28;19909;-60